Terminal Aerodrome Forecast
Issued by NWS

Home | Current Version | Previous Version | Text Only | Print | Product List | Glossary On
Versions: 1 2 3 4 5 6 7 8 9 10 11 12 13 14 15 16
178
FTUS43 KEAX 171149
TAFMKC
TAF
KMKC 171149Z 1712/1812 17013G23KT P6SM SCT008 OVC012
      TEMPO 1712/1716 3SM -DZ OVC007
     FM171600 18012G22KT 4SM -DZ OVC008
     FM172200 VRB06KT P6SM OVC020
     FM181000 34015G25KT P6SM -RA OVC015=

USA.gov is the U.S. government's official web portal to all federal, state and local government web resources and services.